Terminal Aerodrome Forecast
Issued by NWS

Home | Current Version | Previous Version | Text Only | Print | Product List | Glossary On
Versions: 1 2 3 4 5 6 7 8 9 10 11 12 13 14 15 16
000
FTUS41 KCAR 260548
TAFFVE
TAF
KFVE 260548Z 2606/2706 26012G22KT P6SM BKN045
     FM261030 25010G20KT P6SM BKN030
     FM261400 31008G15KT P6SM SCT030 OVC200
     FM270000 36005KT 6SM -SN SCT025 OVC030
     FM270300 02008KT 1SM -SN VV010=

USA.gov is the U.S. government's official web portal to all federal, state and local government web resources and services.